ADDS TAF Board INFO
 
 

IDs: Format: Expanded Condensed

KJFK - New York/Kennedy Int, NY, US

Issued at 2031 UTC 30 Jul 2014
Time2051Z30/22Z30/23Z31/00Z31/01Z31/02Z31/03Z31/04Z31/05Z31/06Z31/07Z31/08Z31/09Z31/10Z
TypeOBSPRVLPRVLPRVLPRVLPRVLPRVLPRVLPRVLPRVLPRVLPRVLPRVLPRVL
Vis10>6>6>6>6>6>6>6>6>6>6>6>6>6
Cig----------------------------
CoverSCTSCTSCTSCTSCTSCTSCTSCTSCTSCTSCTSCTSCTSCT
FltCat--VFRVFRVFRVFRVFRVFRVFRVFRVFRVFRVFRVFRVFR
Wx----------------------------
WDir190200200200200220220220220220220220220220
WSpd1212121212666666666
WGst----------------------------
R04/22
XWnd-4-2-2-2-2111111111
HWnd-11-12-12-12-12-6-6-6-6-6-6-6-6-6
R13/31
XWnd-11-12-12-12-12-6-6-6-6-6-6-6-6-6
HWnd42222-1-1-1-1-1-1-1-1-1
Raw TAF
KJFK 302031Z 3021/3124 20012KT P6SM SCT070
  FM310200 22006KT P6SM SCT250
  FM311600 19012KT P6SM BKN050
  FM312300 20009KT P6SM BKN250


Raw METAR
KJFK 302051Z 19012KT 10SM SCT075 25/12 A3002 RMK AO2 SLP164 T02500117 53001

TAF Board Legend

Hazard Green Yellow Red Magenta
Visibility (sm) >5 >2.99 >0.99 <=0.99
Ceiling (100 ft) >30 >9.99 >4.99 <=4.99
Wind Speed (kt) <10 <20 <30 >=30
Wind Gust (kt) <10 <20 <30 >=30
Weather No Wx Reported Light precipitation Moderate precipitation Heavy precipitation
Flight Category VFR MVFR IFR LIFR

Page loaded:  21:15 UTC  |   02:15 PM Pacific  |   03:15 PM Mountain  |   04:15 PM Central  |   05:15 PM Eastern

 

ADVISORIES

FORECASTS

FORECASTS

OBSERVATIONS

USER TOOLS

ABOUT US